createdAt,value
2022-10-20T00:01:57.688Z,0.27
2022-10-20T00:04:24.407Z,1.97
2022-10-20T00:06:51.096Z,9.63
2022-10-20T00:09:17.657Z,0.60
2022-10-20T00:11:46.041Z,1.40
2022-10-20T00:14:13.103Z,1.87
2022-10-20T00:16:40.915Z,1.23
2022-10-20T00:19:11.867Z,0.80
2022-10-20T00:21:40.515Z,1.73
2022-10-20T00:24:07.147Z,0.53
2022-10-20T00:26:33.988Z,0.60
2022-10-20T00:29:02.566Z,0.30
2022-10-20T00:31:29.524Z,0.40
2022-10-20T00:33:56.204Z,0.97
2022-10-20T00:36:25.779Z,0.50
2022-10-20T00:38:59.284Z,0.53
2022-10-20T00:41:29.743Z,1.67
2022-10-20T00:44:02.032Z,3.10
2022-10-20T00:46:40.747Z,2.40
2022-10-20T00:49:22.079Z,2.23
2022-10-20T00:51:49.922Z,1.40
2022-10-20T00:54:19.499Z,0.50
2022-10-20T00:56:50.006Z,2.10
2022-10-20T00:59:21.849Z,1.00
2022-10-20T01:01:51.840Z,0.30
2022-10-20T01:04:19.074Z,0.77
2022-10-20T01:06:45.649Z,0.73
2022-10-20T01:09:12.546Z,0.93
2022-10-20T01:11:52.877Z,0.30
2022-10-20T01:14:29.403Z,0.70
2022-10-20T01:17:02.080Z,0.80
2022-10-20T01:19:31.283Z,0.30
2022-10-20T01:22:20.627Z,0.73
2022-10-20T01:25:05.522Z,1.43
2022-10-20T01:27:36.563Z,0.70
2022-10-20T01:30:17.824Z,0.60
2022-10-20T01:32:55.311Z,2.27
2022-10-20T01:35:25.560Z,2.27
2022-10-20T01:38:04.757Z,0.70
2022-10-20T01:40:46.438Z,1.50
2022-10-20T01:43:16.765Z,0.83
2022-10-20T01:45:48.305Z,0.60
2022-10-20T01:48:19.989Z,0.90
2022-10-20T01:51:03.853Z,0.33
2022-10-20T01:53:30.955Z,0.43
2022-10-20T01:56:00.010Z,0.60
2022-10-20T01:58:29.477Z,2.17
2022-10-20T02:01:20.632Z,3.00
2022-10-20T02:04:03.254Z,0.47
2022-10-20T02:06:54.242Z,0.73
2022-10-20T02:09:39.356Z,0.40
2022-10-20T02:12:21.553Z,0.97
2022-10-20T02:14:48.770Z,0.67
2022-10-20T02:17:18.743Z,0.63
2022-10-20T02:19:48.466Z,0.50
2022-10-20T02:22:16.347Z,0.90
2022-10-20T02:24:45.110Z,1.60
2022-10-20T02:27:27.516Z,0.47
2022-10-20T02:30:01.563Z,0.70
2022-10-20T02:32:30.490Z,0.47
2022-10-20T02:34:57.090Z,0.47
2022-10-20T02:37:23.829Z,0.60
2022-10-20T02:39:50.466Z,0.70
2022-10-20T02:42:17.428Z,0.90
2022-10-20T02:44:44.074Z,0.60
2022-10-20T02:47:10.815Z,0.77
2022-10-20T02:49:40.250Z,1.17
2022-10-20T02:52:06.826Z,0.53
2022-10-20T02:54:33.975Z,0.43
2022-10-20T02:57:00.601Z,0.20
2022-10-20T02:59:27.223Z,1.23
2022-10-20T03:01:53.990Z,0.57
2022-10-20T03:04:20.784Z,2.27
2022-10-20T03:06:47.548Z,0.20
2022-10-20T03:09:14.293Z,0.47
2022-10-20T03:11:40.926Z,0.40
2022-10-20T03:14:07.547Z,0.50
2022-10-20T03:16:34.425Z,0.27
2022-10-20T03:19:03.998Z,0.47
2022-10-20T03:21:34.183Z,3.13
2022-10-20T03:24:01.182Z,0.50
2022-10-20T03:26:27.799Z,2.07
2022-10-20T03:28:54.404Z,3.37
2022-10-20T03:31:21.353Z,3.67
2022-10-20T03:33:47.949Z,2.50
2022-10-20T03:36:14.525Z,2.33
2022-10-20T03:38:45.623Z,2.30
2022-10-20T03:41:12.283Z,3.03
2022-10-20T03:43:39.991Z,2.10
2022-10-20T03:46:11.674Z,0.80
2022-10-20T03:48:39.706Z,1.57
2022-10-20T03:51:09.267Z,3.43
2022-10-20T03:53:35.955Z,1.27
2022-10-20T03:56:10.514Z,0.40
2022-10-20T03:58:37.105Z,0.43
2022-10-20T04:01:06.481Z,4.53
2022-10-20T04:03:33.239Z,0.77
2022-10-20T04:05:59.859Z,0.63
2022-10-20T04:08:26.537Z,0.93
2022-10-20T04:10:53.385Z,1.03
2022-10-20T04:13:23.095Z,0.50
2022-10-20T04:15:49.627Z,0.90
2022-10-20T04:18:16.403Z,1.23
2022-10-20T04:20:44.522Z,2.50
2022-10-20T04:23:11.736Z,2.43
2022-10-20T04:25:45.654Z,2.27
2022-10-20T04:28:13.405Z,0.80
2022-10-20T04:30:40.238Z,1.67
2022-10-20T04:33:07.031Z,1.20
2022-10-20T04:35:33.773Z,5.50
2022-10-20T04:38:00.633Z,1.57
2022-10-20T04:40:27.328Z,0.70
2022-10-20T04:42:53.909Z,0.20
2022-10-20T04:45:20.511Z,1.80
2022-10-20T04:47:47.081Z,1.40
2022-10-20T04:50:16.743Z,0.63
2022-10-20T04:52:43.346Z,0.40
2022-10-20T04:55:10.007Z,1.03
2022-10-20T04:57:36.944Z,1.20
2022-10-20T05:00:06.287Z,0.43
2022-10-20T05:02:32.887Z,0.20
2022-10-20T05:04:59.608Z,1.43
2022-10-20T05:07:29.058Z,2.10
2022-10-20T05:09:55.616Z,0.77
2022-10-20T05:12:24.143Z,1.43
2022-10-20T05:14:50.728Z,1.23
2022-10-20T05:17:17.293Z,1.47
2022-10-20T05:19:47.151Z,0.90
2022-10-20T05:22:13.800Z,1.10
2022-10-20T05:24:43.411Z,0.77
2022-10-20T05:27:10.760Z,1.70
2022-10-20T05:29:37.413Z,2.00
2022-10-20T05:32:04.083Z,0.93
2022-10-20T05:34:33.502Z,1.80
2022-10-20T05:37:00.077Z,1.30
2022-10-20T05:39:26.836Z,2.27
2022-10-20T05:41:53.512Z,2.67
2022-10-20T05:44:20.134Z,3.17
2022-10-20T05:46:46.767Z,3.47
2022-10-20T05:49:15.846Z,4.80
2022-10-20T05:51:47.033Z,6.37
2022-10-20T05:54:16.951Z,2.40
2022-10-20T05:56:44.005Z,3.13
2022-10-20T05:59:11.790Z,2.00
2022-10-20T06:01:48.395Z,5.30
2022-10-20T06:04:17.867Z,4.67
2022-10-20T06:06:44.877Z,6.57
2022-10-20T06:09:12.231Z,0.30
2022-10-20T06:11:39.884Z,1.50
2022-10-20T06:14:08.248Z,4.57
2022-10-20T06:16:35.223Z,2.67
2022-10-20T06:19:03.163Z,2.97
2022-10-20T06:21:32.201Z,3.93
2022-10-20T06:24:04.788Z,3.00
2022-10-20T06:26:33.235Z,0.93
2022-10-20T06:29:04.272Z,0.93
2022-10-20T06:31:34.157Z,0.60
2022-10-20T06:34:01.573Z,0.50
2022-10-20T06:36:31.627Z,0.90
2022-10-20T06:39:02.095Z,2.87
2022-10-20T06:41:28.769Z,1.33
2022-10-20T06:43:59.076Z,2.67
2022-10-20T06:46:31.026Z,2.03
2022-10-20T06:49:03.871Z,2.57
2022-10-20T06:51:31.055Z,1.63
2022-10-20T06:53:59.411Z,7.43
2022-10-20T06:56:29.089Z,1.60
2022-10-20T06:58:57.302Z,0.93
2022-10-20T07:01:27.991Z,1.03
2022-10-20T07:03:58.840Z,1.33
2022-10-20T07:06:34.455Z,0.97
2022-10-20T07:09:04.167Z,0.93
2022-10-20T07:11:32.153Z,1.10
2022-10-20T07:14:02.349Z,1.13
2022-10-20T07:16:31.791Z,1.60
2022-10-20T07:18:59.717Z,1.33
2022-10-20T07:21:35.662Z,1.43
2022-10-20T07:24:06.696Z,1.40
2022-10-20T07:26:36.548Z,0.70
2022-10-20T07:29:04.347Z,3.33
2022-10-20T07:31:38.253Z,0.87
2022-10-20T07:34:14.065Z,2.90
2022-10-20T07:36:51.398Z,1.53
2022-10-20T07:39:18.040Z,1.33
2022-10-20T07:41:47.361Z,2.40
2022-10-20T07:44:14.427Z,0.73
2022-10-20T07:46:41.107Z,3.80
2022-10-20T07:51:54.303Z,2.53
2022-10-20T07:54:21.015Z,8.33
2022-10-20T07:56:47.852Z,0.83
2022-10-20T07:59:14.526Z,0.80
2022-10-20T08:01:43.452Z,4.03
2022-10-20T08:04:10.114Z,1.20
2022-10-20T08:06:39.366Z,2.90
2022-10-20T08:09:07.408Z,1.17
2022-10-20T08:11:36.813Z,2.97
2022-10-20T08:14:06.249Z,1.10
2022-10-20T08:16:32.935Z,0.70
2022-10-20T08:19:10.837Z,1.93
2022-10-20T08:21:37.527Z,0.70
2022-10-20T08:24:04.308Z,0.77
2022-10-20T08:26:33.266Z,1.23
2022-10-20T08:28:59.918Z,1.03
2022-10-20T08:31:28.866Z,1.53
2022-10-20T08:33:56.969Z,0.80
2022-10-20T08:36:24.711Z,3.70
2022-10-20T08:38:51.391Z,0.87
2022-10-20T08:41:21.913Z,1.10
2022-10-20T08:43:54.715Z,2.43
2022-10-20T08:46:25.102Z,0.30
2022-10-20T08:48:52.889Z,3.23
2022-10-20T08:51:22.630Z,2.27
2022-10-20T08:53:51.943Z,0.60
2022-10-20T08:56:22.941Z,0.30
2022-10-20T08:58:49.685Z,1.50
2022-10-20T09:01:30.969Z,2.07
2022-10-20T09:04:19.332Z,1.60
2022-10-20T09:06:51.273Z,2.30
2022-10-20T09:09:20.747Z,0.23
2022-10-20T09:11:48.151Z,3.00
2022-10-20T09:14:16.772Z,1.93
2022-10-20T09:16:59.639Z,0.80
2022-10-20T09:19:28.215Z,1.90
2022-10-20T09:22:02.772Z,0.67
2022-10-20T09:24:30.769Z,0.40
2022-10-20T09:27:16.000Z,1.10
2022-10-20T09:29:42.727Z,0.30
2022-10-20T09:32:45.503Z,0.73
2022-10-20T09:35:21.913Z,0.67
2022-10-20T09:37:55.516Z,2.27
2022-10-20T09:40:23.197Z,0.50
2022-10-20T09:42:54.194Z,1.10
2022-10-20T09:45:28.872Z,0.40
2022-10-20T09:48:21.203Z,0.80
2022-10-20T09:50:53.401Z,3.27
2022-10-20T09:53:23.813Z,1.03
2022-10-20T09:55:54.166Z,0.60
2022-10-20T09:58:30.254Z,0.93
2022-10-20T10:01:17.880Z,1.80
2022-10-20T10:03:46.907Z,3.00
2022-10-20T10:06:34.441Z,1.47
2022-10-20T10:09:02.470Z,0.63
2022-10-20T10:11:36.555Z,0.57
2022-10-20T10:14:06.805Z,0.73
2022-10-20T10:16:42.299Z,0.40
2022-10-20T10:19:18.059Z,0.93
2022-10-20T10:21:55.010Z,0.70
2022-10-20T10:24:42.318Z,2.10
2022-10-20T10:27:27.935Z,2.23
2022-10-20T10:30:19.794Z,0.60
2022-10-20T10:32:47.982Z,0.40
2022-10-20T10:35:36.226Z,0.87
2022-10-20T10:38:03.383Z,1.03
2022-10-20T10:40:33.078Z,0.40
2022-10-20T10:43:22.194Z,0.97
2022-10-20T10:45:56.840Z,2.10
2022-10-20T10:49:00.956Z,0.40
2022-10-20T10:52:24.994Z,0.20
2022-10-20T10:55:47.822Z,0.90
2022-10-20T10:58:40.594Z,1.77
2022-10-20T11:01:19.129Z,0.63
2022-10-20T11:04:22.762Z,1.27
2022-10-20T11:07:06.827Z,0.70
2022-10-20T11:09:36.355Z,0.40
2022-10-20T11:12:15.023Z,0.67
2022-10-20T11:15:06.274Z,0.57
2022-10-20T11:17:56.514Z,0.97
2022-10-20T11:20:52.951Z,1.80
2022-10-20T11:23:37.507Z,0.13
2022-10-20T11:26:25.414Z,1.17
2022-10-20T11:28:57.882Z,2.23
2022-10-20T11:31:39.848Z,1.37
2022-10-20T11:34:23.856Z,0.70
2022-10-20T11:37:17.086Z,0.87
2022-10-20T11:39:59.533Z,1.10
2022-10-20T11:42:51.102Z,0.23
2022-10-20T11:45:38.732Z,0.37
2022-10-20T11:48:22.910Z,0.30
2022-10-20T11:51:10.981Z,0.43
2022-10-20T11:54:18.456Z,0.70
2022-10-20T11:56:54.073Z,0.60
2022-10-20T11:59:48.078Z,0.30
2022-10-20T12:02:52.410Z,0.30
2022-10-20T12:05:52.415Z,0.83
2022-10-20T12:08:34.145Z,0.20
2022-10-20T12:11:09.694Z,0.50
2022-10-20T12:13:55.433Z,0.30
2022-10-20T12:16:53.231Z,0.30
2022-10-20T12:19:26.989Z,0.30
2022-10-20T12:21:58.615Z,0.30
2022-10-20T12:24:38.612Z,0.53
2022-10-20T12:27:08.238Z,0.43
2022-10-20T12:29:34.757Z,1.13
2022-10-20T12:32:26.002Z,1.37
2022-10-20T12:35:22.808Z,0.63
2022-10-20T12:37:58.091Z,0.80
2022-10-20T12:40:28.267Z,0.20
2022-10-20T12:42:56.152Z,1.70
2022-10-20T12:45:33.888Z,0.37
2022-10-20T12:48:02.911Z,0.90
2022-10-20T12:50:41.189Z,0.50
2022-10-20T12:53:19.175Z,1.27
2022-10-20T12:55:56.075Z,0.70
2022-10-20T12:58:22.632Z,0.60
2022-10-20T13:00:52.165Z,1.70
2022-10-20T13:03:47.884Z,0.23
2022-10-20T13:06:23.453Z,0.40
2022-10-20T13:09:21.263Z,0.60
2022-10-20T13:12:04.520Z,0.77
2022-10-20T13:14:54.892Z,0.23
2022-10-20T13:17:41.342Z,0.53
2022-10-20T13:20:28.272Z,0.30
2022-10-20T13:22:56.271Z,0.87
2022-10-20T13:25:34.427Z,0.43
2022-10-20T13:28:05.633Z,4.33
2022-10-20T13:30:35.387Z,1.77
2022-10-20T13:34:02.042Z,1.40
2022-10-20T13:36:39.644Z,1.27
2022-10-20T13:39:38.891Z,1.27
2022-10-20T13:42:26.335Z,0.40
2022-10-20T13:45:08.210Z,0.67
2022-10-20T13:47:45.482Z,1.43
2022-10-20T13:50:22.902Z,0.40
2022-10-20T13:52:57.822Z,0.83
2022-10-20T13:55:28.442Z,1.53
2022-10-20T13:58:06.729Z,0.53
2022-10-20T14:00:36.181Z,0.60
2022-10-20T14:03:17.403Z,1.20
2022-10-20T14:05:43.991Z,3.17
2022-10-20T14:08:14.122Z,0.20
2022-10-20T14:10:57.055Z,0.40
2022-10-20T14:13:28.789Z,0.60
2022-10-20T14:15:57.763Z,0.30
2022-10-20T14:18:35.556Z,0.40
2022-10-20T14:21:08.551Z,1.17
2022-10-20T14:23:38.431Z,3.90
2022-10-20T14:26:07.720Z,3.10
2022-10-20T14:28:36.505Z,0.50
2022-10-20T14:31:03.526Z,4.70
2022-10-20T14:33:30.952Z,0.87
2022-10-20T14:35:59.633Z,0.93
2022-10-20T14:38:33.307Z,0.53
2022-10-20T14:41:00.254Z,0.87
2022-10-20T14:43:26.853Z,0.70
2022-10-20T14:45:56.521Z,1.00
2022-10-20T14:48:25.394Z,3.57
2022-10-20T14:50:54.017Z,1.00
2022-10-20T14:53:25.245Z,2.03
2022-10-20T14:55:52.040Z,1.90
2022-10-20T14:58:39.135Z,3.40
2022-10-20T15:01:29.108Z,1.30
2022-10-20T15:04:10.974Z,0.40
2022-10-20T15:06:37.691Z,1.33
2022-10-20T15:09:04.454Z,2.20
2022-10-20T15:11:32.340Z,1.00
2022-10-20T15:14:00.337Z,1.70
2022-10-20T15:16:39.960Z,1.20
2022-10-20T15:19:34.612Z,2.13
2022-10-20T15:24:44.706Z,2.83
2022-10-20T15:27:15.935Z,1.97
2022-10-20T15:29:51.759Z,5.50
2022-10-20T15:32:18.652Z,1.77
2022-10-20T15:34:45.364Z,2.67
2022-10-20T15:37:11.960Z,1.33
2022-10-20T15:39:38.686Z,1.70
2022-10-20T15:42:11.105Z,1.60
2022-10-20T15:44:38.197Z,2.33
2022-10-20T15:47:04.989Z,2.90
2022-10-20T15:49:31.734Z,1.57
2022-10-20T15:51:58.333Z,1.10
2022-10-20T15:54:25.059Z,1.80
2022-10-20T15:56:51.683Z,1.53
2022-10-20T15:59:18.367Z,1.57
2022-10-20T16:01:45.048Z,3.10
2022-10-20T16:04:22.382Z,3.13
2022-10-20T16:06:52.466Z,2.70
2022-10-20T16:09:23.631Z,6.40
2022-10-20T16:11:50.349Z,5.87
2022-10-20T16:14:16.974Z,7.73
2022-10-20T16:16:47.077Z,4.77
2022-10-20T16:19:13.874Z,7.87
2022-10-20T16:21:41.394Z,2.27
2022-10-20T16:24:08.085Z,3.07
2022-10-20T16:26:34.696Z,7.30
2022-10-20T16:29:01.292Z,4.87
2022-10-20T16:31:29.390Z,4.60
2022-10-20T16:33:58.920Z,2.37
2022-10-20T16:36:45.839Z,5.43
2022-10-20T16:39:13.732Z,4.20
2022-10-20T16:41:40.348Z,3.17
2022-10-20T16:44:06.931Z,8.10
2022-10-20T16:46:33.505Z,10.73
2022-10-20T16:49:29.755Z,8.47
2022-10-20T16:52:02.750Z,11.10
2022-10-20T16:54:29.623Z,14.60
2022-10-20T16:56:56.371Z,12.03
2022-10-20T16:59:23.091Z,6.97
2022-10-20T17:01:49.865Z,17.10
2022-10-20T17:04:16.493Z,14.43
2022-10-20T17:06:43.150Z,6.83
2022-10-20T17:09:09.851Z,6.43
2022-10-20T17:11:36.560Z,10.57
2022-10-20T17:14:03.600Z,5.30
2022-10-20T17:16:33.067Z,14.60
2022-10-20T17:19:02.135Z,50.23
2022-10-20T17:21:30.354Z,82.40
2022-10-20T17:23:57.310Z,92.07
2022-10-20T17:26:25.713Z,172.73
2022-10-20T17:28:56.569Z,111.03
2022-10-20T17:31:23.689Z,104.40
2022-10-20T17:33:51.537Z,72.60
2022-10-20T17:36:19.750Z,93.13
2022-10-20T17:38:46.603Z,82.80
2022-10-20T17:41:15.461Z,49.20
2022-10-20T17:43:42.255Z,35.23
2022-10-20T17:46:12.762Z,41.07
2022-10-20T17:48:39.453Z,46.17
2022-10-20T17:51:12.461Z,31.03
2022-10-20T17:53:41.387Z,33.67
2022-10-20T17:56:11.557Z,39.53
2022-10-20T17:58:38.900Z,44.23
2022-10-20T18:01:13.125Z,37.83
2022-10-20T18:03:40.950Z,28.10
2022-10-20T18:06:18.777Z,27.63
2022-10-20T18:08:46.028Z,25.27
2022-10-20T18:11:18.062Z,23.40
2022-10-20T18:13:45.451Z,27.00
2022-10-20T18:16:17.602Z,27.40
2022-10-20T18:18:44.803Z,24.37
2022-10-20T18:21:16.650Z,24.30
2022-10-20T18:23:45.762Z,25.03
2022-10-20T18:26:17.430Z,39.83
2022-10-20T18:28:48.187Z,20.37
2022-10-20T18:31:22.361Z,32.33
2022-10-20T18:33:50.985Z,25.13
2022-10-20T18:36:19.083Z,20.53
2022-10-20T18:38:46.839Z,21.33
2022-10-20T18:41:19.513Z,20.73
2022-10-20T18:43:47.079Z,24.00
2022-10-20T18:46:14.811Z,26.83
2022-10-20T18:48:42.397Z,21.33
2022-10-20T18:51:11.003Z,19.00
2022-10-20T18:56:07.090Z,24.70
2022-10-20T18:58:38.359Z,20.87
2022-10-20T19:01:10.688Z,19.33
2022-10-20T19:03:38.963Z,20.20
2022-10-20T19:06:12.253Z,24.10
2022-10-20T19:08:40.193Z,18.77
2022-10-20T19:11:09.721Z,16.90
2022-10-20T19:13:36.343Z,15.47
2022-10-20T19:16:09.303Z,18.50
2022-10-20T19:18:36.035Z,17.17
2022-10-20T19:21:06.173Z,14.37
2022-10-20T19:23:35.274Z,16.03
2022-10-20T19:26:15.715Z,14.10
2022-10-20T19:28:46.482Z,13.20
2022-10-20T19:31:21.290Z,12.90
2022-10-20T19:33:51.259Z,11.90
2022-10-20T19:36:19.345Z,14.93
2022-10-20T19:38:46.633Z,16.73
2022-10-20T19:41:13.698Z,16.90
2022-10-20T19:43:40.406Z,17.10
2022-10-20T19:46:08.795Z,18.43
2022-10-20T19:48:35.936Z,19.23
2022-10-20T19:51:03.633Z,19.17
2022-10-20T19:53:30.574Z,21.07
2022-10-20T19:55:57.295Z,15.20
2022-10-20T19:58:23.983Z,17.13
2022-10-20T20:00:53.541Z,19.53
2022-10-20T20:03:22.057Z,15.47
2022-10-20T20:05:48.754Z,17.93
2022-10-20T20:08:15.379Z,14.17
2022-10-20T20:10:50.475Z,13.00
2022-10-20T20:13:17.047Z,13.00
2022-10-20T20:15:43.644Z,11.60
2022-10-20T20:18:12.145Z,9.27
2022-10-20T20:20:49.033Z,12.00
2022-10-20T20:23:26.008Z,11.90
2022-10-20T20:26:03.968Z,9.17
2022-10-20T20:28:31.388Z,10.03
2022-10-20T20:31:09.778Z,10.53
2022-10-20T20:33:36.586Z,7.80
2022-10-20T20:36:06.432Z,7.97
2022-10-20T20:38:36.302Z,10.73
2022-10-20T20:41:07.025Z,15.87
2022-10-20T20:43:35.187Z,9.67
2022-10-20T20:46:06.334Z,7.30
2022-10-20T20:48:34.836Z,6.57
2022-10-20T20:51:01.487Z,6.63
2022-10-20T20:53:28.137Z,12.77
2022-10-20T20:55:57.114Z,6.67
2022-10-20T20:58:24.575Z,10.10
2022-10-20T21:00:52.368Z,8.63
2022-10-20T21:03:19.420Z,6.93
2022-10-20T21:05:46.048Z,8.80
2022-10-20T21:08:12.931Z,12.73
2022-10-20T21:10:39.546Z,11.93
2022-10-20T21:13:06.186Z,10.53
2022-10-20T21:15:32.806Z,12.83
2022-10-20T21:17:59.408Z,6.70
2022-10-20T21:20:25.990Z,8.43
2022-10-20T21:22:52.746Z,13.27
2022-10-20T21:25:19.733Z,11.57
2022-10-20T21:27:46.339Z,8.93
2022-10-20T21:30:12.930Z,12.87
2022-10-20T21:32:39.910Z,9.27
2022-10-20T21:35:07.049Z,9.07
2022-10-20T21:37:33.661Z,10.97
2022-10-20T21:40:00.286Z,8.87
2022-10-20T21:42:26.910Z,10.23
2022-10-20T21:44:53.525Z,15.47
2022-10-20T21:47:20.103Z,9.67
2022-10-20T21:49:46.739Z,8.90
2022-10-20T21:52:13.331Z,7.13
2022-10-20T21:54:39.968Z,7.57
2022-10-20T21:57:06.559Z,13.63
2022-10-20T21:59:33.130Z,8.53
2022-10-20T22:02:01.574Z,8.53
2022-10-20T22:04:30.383Z,10.20
2022-10-20T22:06:57.206Z,12.00
2022-10-20T22:09:24.169Z,14.80
2022-10-20T22:11:55.211Z,15.33
2022-10-20T22:14:22.421Z,12.03
2022-10-20T22:16:49.142Z,9.80
2022-10-20T22:19:19.605Z,9.27
2022-10-20T22:21:47.817Z,11.43
2022-10-20T22:24:15.283Z,9.37
2022-10-20T22:26:42.504Z,10.93
2022-10-20T22:29:10.025Z,11.23
2022-10-20T22:31:38.675Z,9.27
2022-10-20T22:34:06.360Z,9.50
2022-10-20T22:36:33.205Z,14.33
2022-10-20T22:38:59.946Z,8.87
2022-10-20T22:41:26.668Z,6.50
2022-10-20T22:43:53.324Z,10.07
2022-10-20T22:46:20.072Z,15.03
2022-10-20T22:48:46.773Z,16.17
2022-10-20T22:51:14.207Z,8.33
2022-10-20T22:53:41.369Z,9.70
2022-10-20T22:56:11.148Z,13.43
2022-10-20T22:58:46.806Z,13.00
2022-10-20T23:01:20.281Z,10.70
2022-10-20T23:03:47.623Z,13.70
2022-10-20T23:06:17.621Z,14.10
2022-10-20T23:08:49.033Z,12.20
2022-10-20T23:11:16.501Z,11.93
2022-10-20T23:13:45.953Z,13.23
2022-10-20T23:16:16.242Z,9.50
2022-10-20T23:18:43.112Z,8.47
2022-10-20T23:21:10.056Z,8.13
2022-10-20T23:23:39.443Z,11.53
2022-10-20T23:26:07.527Z,10.00
2022-10-20T23:28:36.574Z,9.47
2022-10-20T23:31:08.382Z,11.23
2022-10-20T23:33:35.557Z,7.07
2022-10-20T23:36:02.290Z,8.43
2022-10-20T23:38:29.214Z,6.90
2022-10-20T23:41:01.695Z,6.63
2022-10-20T23:43:32.980Z,10.47
2022-10-20T23:46:00.139Z,6.77
2022-10-20T23:48:27.433Z,7.87
2022-10-20T23:50:54.125Z,5.50
2022-10-20T23:53:20.789Z,6.87
2022-10-20T23:55:47.416Z,8.40
2022-10-20T23:58:14.097Z,9.57
